Terminal Aerodrome Forecast
Issued by NWS Charleston, WV

Current Version | Previous Version | Text Only | Print | Product List | Glossary Off
Versions: 1 2 3 4 5 6 7 8 9 10 11 12 13 14 15 16 17 18 19 20 21 22 23 24 25

000
FTUS41 KRLX 140500
TAFEKN
TAF
KEKN 140520Z 1406/1506 00000KT 1SM BR VV001
      TEMPO 1406/1408 2SM BR SCT001
     FM140800 00000KT 1/4SM FG VV001
     FM141300 00000KT 3SM BR SCT001
     FM141400 00000KT P6SM FEW050
     FM150300 00000KT 6SM BR SCT025
     FM150500 00000KT 1 1/2SM BR SCT008=

USA.gov is the U.S. government's official web portal to all federal, state and local government web resources and services.